<?xml version="1.0" encoding="UTF-8" standalone="no" ?>
<gpx xmlns="http://www.topografix.com/GPX/1/1" xmlns:xsi="http://www.w3.org/2001/XMLSchema-instance" xsi:schemaLocation="http://www.topografix.com/GPX/1/1 http://www.topografix.com/GPX/1/1/gpx.xsd" version="1.1" creator="VisuGPX - https://www.visugpx.com">
  <metadata>
    <name>GTH34 Nord Gth34- 1 La Salvetat - Fagairoles.</name>
    <desc><![CDATA[Grande traversée de l\'Hérault Tronçon nord]]></desc>
  </metadata>
  <trk>
    <name><![CDATA[Gth34- 1 La Salvetat - Fagairoles]]></name>
    <trkseg>
      <trkpt lat="43.60147" lon="2.68642">
        <ele>702.8</ele>
        <time>2014-06-22T04:51:44Z</time>
      </trkpt>
      <trkpt lat="43.60121" lon="2.6858">
        <ele>702.7</ele>
        <time>2014-06-22T04:53:25Z</time>
      </trkpt>
      <trkpt lat="43.60065" lon="2.68541">
        <ele>704.1</ele>
        <time>2014-06-22T04:54:46Z</time>
      </trkpt>
      <trkpt lat="43.60075" lon="2.68524">
        <ele>703.8</ele>
        <time>2014-06-22T04:55:28Z</time>
      </trkpt>
      <trkpt lat="43.60069" lon="2.68508">
        <ele>704</ele>
        <time>2014-06-22T04:55:43Z</time>
      </trkpt>
      <trkpt lat="43.60078" lon="2.68474">
        <ele>703.8</ele>
        <time>2014-06-22T04:57:18Z</time>
      </trkpt>
      <trkpt lat="43.60077" lon="2.68462">
        <ele>703.7</ele>
        <time>2014-06-22T04:58:20Z</time>
      </trkpt>
      <trkpt lat="43.6007" lon="2.68448">
        <ele>703.2</ele>
        <time>2014-06-22T04:59:13Z</time>
      </trkpt>
      <trkpt lat="43.60053" lon="2.68439">
        <ele>702.8</ele>
        <time>2014-06-22T05:00:08Z</time>
      </trkpt>
      <trkpt lat="43.60064" lon="2.68417">
        <ele>703</ele>
        <time>2014-06-22T05:02:01Z</time>
      </trkpt>
      <trkpt lat="43.60058" lon="2.68412">
        <ele>702.9</ele>
        <time>2014-06-22T05:03:05Z</time>
      </trkpt>
      <trkpt lat="43.60064" lon="2.6842">
        <ele>702.6</ele>
        <time>2014-06-22T05:03:32Z</time>
      </trkpt>
      <trkpt lat="43.6005" lon="2.68395">
        <ele>702.9</ele>
        <time>2014-06-22T05:04:23Z</time>
      </trkpt>
      <trkpt lat="43.60079" lon="2.68484">
        <ele>697.6</ele>
        <time>2014-06-22T05:40:02Z</time>
      </trkpt>
      <trkpt lat="43.60104" lon="2.68521">
        <ele>706.2</ele>
        <time>2014-06-22T07:00:38Z</time>
      </trkpt>
      <trkpt lat="43.60167" lon="2.68518">
        <ele>702.2</ele>
        <time>2014-06-22T07:01:01Z</time>
      </trkpt>
      <trkpt lat="43.60254" lon="2.68595">
        <ele>702.3</ele>
        <time>2014-06-22T07:01:54Z</time>
      </trkpt>
      <trkpt lat="43.60219" lon="2.68644">
        <ele>708.5</ele>
        <time>2014-06-22T07:04:31Z</time>
      </trkpt>
      <trkpt lat="43.6013" lon="2.68639">
        <ele>713.7</ele>
        <time>2014-06-22T07:06:06Z</time>
      </trkpt>
      <trkpt lat="43.60082" lon="2.68647">
        <ele>715.6</ele>
        <time>2014-06-22T07:06:38Z</time>
      </trkpt>
      <trkpt lat="43.60013" lon="2.68601">
        <ele>722.1</ele>
        <time>2014-06-22T07:07:22Z</time>
      </trkpt>
      <trkpt lat="43.59949" lon="2.68614">
        <ele>727.7</ele>
        <time>2014-06-22T07:08:08Z</time>
      </trkpt>
      <trkpt lat="43.59875" lon="2.68748">
        <ele>728.6</ele>
        <time>2014-06-22T07:08:56Z</time>
      </trkpt>
      <trkpt lat="43.59811" lon="2.68931">
        <ele>727.8</ele>
        <time>2014-06-22T07:17:25Z</time>
      </trkpt>
      <trkpt lat="43.59703" lon="2.689">
        <ele>727.3</ele>
        <time>2014-06-22T07:18:05Z</time>
      </trkpt>
      <trkpt lat="43.59651" lon="2.68777">
        <ele>734.2</ele>
        <time>2014-06-22T07:18:59Z</time>
      </trkpt>
      <trkpt lat="43.5963" lon="2.68756">
        <ele>736</ele>
        <time>2014-06-22T07:19:13Z</time>
      </trkpt>
      <trkpt lat="43.59493" lon="2.68654">
        <ele>749.1</ele>
        <time>2014-06-22T07:20:40Z</time>
      </trkpt>
      <trkpt lat="43.59452" lon="2.68534">
        <ele>758</ele>
        <time>2014-06-22T07:21:40Z</time>
      </trkpt>
      <trkpt lat="43.5945" lon="2.68409">
        <ele>765</ele>
        <time>2014-06-22T07:22:31Z</time>
      </trkpt>
      <trkpt lat="43.59417" lon="2.68291">
        <ele>772.4</ele>
        <time>2014-06-22T07:23:23Z</time>
      </trkpt>
      <trkpt lat="43.59326" lon="2.68291">
        <ele>780.1</ele>
        <time>2014-06-22T07:24:14Z</time>
      </trkpt>
      <trkpt lat="43.59256" lon="2.68271">
        <ele>788.5</ele>
        <time>2014-06-22T07:24:59Z</time>
      </trkpt>
      <trkpt lat="43.59226" lon="2.6821">
        <ele>796.5</ele>
        <time>2014-06-22T07:25:46Z</time>
      </trkpt>
      <trkpt lat="43.59084" lon="2.68044">
        <ele>816.1</ele>
        <time>2014-06-22T07:28:03Z</time>
      </trkpt>
      <trkpt lat="43.59035" lon="2.68048">
        <ele>815.5</ele>
        <time>2014-06-22T07:28:24Z</time>
      </trkpt>
      <trkpt lat="43.58923" lon="2.68017">
        <ele>816.2</ele>
        <time>2014-06-22T07:28:59Z</time>
      </trkpt>
      <trkpt lat="43.58849" lon="2.67946">
        <ele>829.7</ele>
        <time>2014-06-22T07:30:19Z</time>
      </trkpt>
      <trkpt lat="43.58739" lon="2.6785">
        <ele>845.5</ele>
        <time>2014-06-22T07:36:22Z</time>
      </trkpt>
      <trkpt lat="43.58681" lon="2.6776">
        <ele>853.6</ele>
        <time>2014-06-22T07:37:22Z</time>
      </trkpt>
      <trkpt lat="43.58525" lon="2.67711">
        <ele>862.2</ele>
        <time>2014-06-22T07:39:23Z</time>
      </trkpt>
      <trkpt lat="43.58486" lon="2.6766">
        <ele>865.6</ele>
        <time>2014-06-22T07:39:52Z</time>
      </trkpt>
      <trkpt lat="43.58509" lon="2.67571">
        <ele>875.3</ele>
        <time>2014-06-22T07:40:51Z</time>
      </trkpt>
      <trkpt lat="43.58452" lon="2.67463">
        <ele>886</ele>
        <time>2014-06-22T07:42:04Z</time>
      </trkpt>
      <trkpt lat="43.58446" lon="2.67343">
        <ele>892.6</ele>
        <time>2014-06-22T07:43:02Z</time>
      </trkpt>
      <trkpt lat="43.58359" lon="2.67248">
        <ele>892.6</ele>
        <time>2014-06-22T07:44:06Z</time>
      </trkpt>
      <trkpt lat="43.58247" lon="2.67186">
        <ele>892.4</ele>
        <time>2014-06-22T07:47:04Z</time>
      </trkpt>
      <trkpt lat="43.58166" lon="2.67109">
        <ele>891.5</ele>
        <time>2014-06-22T07:47:30Z</time>
      </trkpt>
      <trkpt lat="43.58121" lon="2.67106">
        <ele>895.3</ele>
        <time>2014-06-22T07:47:51Z</time>
      </trkpt>
      <trkpt lat="43.5806" lon="2.67043">
        <ele>894.4</ele>
        <time>2014-06-22T07:48:14Z</time>
      </trkpt>
      <trkpt lat="43.57964" lon="2.66802">
        <ele>890.6</ele>
        <time>2014-06-22T07:48:56Z</time>
      </trkpt>
      <trkpt lat="43.57938" lon="2.66633">
        <ele>894</ele>
        <time>2014-06-22T07:49:40Z</time>
      </trkpt>
      <trkpt lat="43.5781" lon="2.66473">
        <ele>901.2</ele>
        <time>2014-06-22T07:50:39Z</time>
      </trkpt>
      <trkpt lat="43.57698" lon="2.66466">
        <ele>899.7</ele>
        <time>2014-06-22T07:51:07Z</time>
      </trkpt>
      <trkpt lat="43.57678" lon="2.66474">
        <ele>899.4</ele>
        <time>2014-06-22T07:51:14Z</time>
      </trkpt>
      <trkpt lat="43.57606" lon="2.66602">
        <ele>899.1</ele>
        <time>2014-06-22T07:53:32Z</time>
      </trkpt>
      <trkpt lat="43.57539" lon="2.66676">
        <ele>897.5</ele>
        <time>2014-06-22T07:53:54Z</time>
      </trkpt>
      <trkpt lat="43.57357" lon="2.66764">
        <ele>885.4</ele>
        <time>2014-06-22T07:54:24Z</time>
      </trkpt>
      <trkpt lat="43.57204" lon="2.67007">
        <ele>883.5</ele>
        <time>2014-06-22T07:55:07Z</time>
      </trkpt>
      <trkpt lat="43.57102" lon="2.67107">
        <ele>884.7</ele>
        <time>2014-06-22T07:55:38Z</time>
      </trkpt>
      <trkpt lat="43.57062" lon="2.67162">
        <ele>881.8</ele>
        <time>2014-06-22T07:55:48Z</time>
      </trkpt>
      <trkpt lat="43.57001" lon="2.67542">
        <ele>870.6</ele>
        <time>2014-06-22T07:56:29Z</time>
      </trkpt>
      <trkpt lat="43.57004" lon="2.6792">
        <ele>865.3</ele>
        <time>2014-06-22T07:57:11Z</time>
      </trkpt>
      <trkpt lat="43.56975" lon="2.68135">
        <ele>870.6</ele>
        <time>2014-06-22T07:57:55Z</time>
      </trkpt>
      <trkpt lat="43.56991" lon="2.68226">
        <ele>870.6</ele>
        <time>2014-06-22T07:58:34Z</time>
      </trkpt>
      <trkpt lat="43.57024" lon="2.68299">
        <ele>871.5</ele>
        <time>2014-06-22T07:59:03Z</time>
      </trkpt>
      <trkpt lat="43.57" lon="2.68337">
        <ele>874.1</ele>
        <time>2014-06-22T07:59:46Z</time>
      </trkpt>
      <trkpt lat="43.56985" lon="2.68448">
        <ele>882.8</ele>
        <time>2014-06-22T08:00:38Z</time>
      </trkpt>
      <trkpt lat="43.56833" lon="2.686">
        <ele>900.7</ele>
        <time>2014-06-22T08:02:38Z</time>
      </trkpt>
      <trkpt lat="43.56671" lon="2.68695">
        <ele>910.4</ele>
        <time>2014-06-22T08:03:45Z</time>
      </trkpt>
      <trkpt lat="43.56599" lon="2.68762">
        <ele>913.9</ele>
        <time>2014-06-22T08:04:19Z</time>
      </trkpt>
      <trkpt lat="43.56571" lon="2.68812">
        <ele>914.9</ele>
        <time>2014-06-22T08:04:39Z</time>
      </trkpt>
      <trkpt lat="43.56549" lon="2.68913">
        <ele>916.8</ele>
        <time>2014-06-22T08:05:08Z</time>
      </trkpt>
      <trkpt lat="43.56545" lon="2.6898">
        <ele>914.3</ele>
        <time>2014-06-22T08:10:56Z</time>
      </trkpt>
      <trkpt lat="43.56512" lon="2.69096">
        <ele>917.3</ele>
        <time>2014-06-22T08:11:28Z</time>
      </trkpt>
      <trkpt lat="43.5654" lon="2.69203">
        <ele>932.8</ele>
        <time>2014-06-22T08:12:46Z</time>
      </trkpt>
      <trkpt lat="43.56475" lon="2.69195">
        <ele>934.5</ele>
        <time>2014-06-22T08:13:40Z</time>
      </trkpt>
      <trkpt lat="43.5637" lon="2.69206">
        <ele>927.3</ele>
        <time>2014-06-22T08:14:00Z</time>
      </trkpt>
      <trkpt lat="43.56321" lon="2.69233">
        <ele>929.2</ele>
        <time>2014-06-22T08:14:28Z</time>
      </trkpt>
      <trkpt lat="43.5634" lon="2.69349">
        <ele>937.2</ele>
        <time>2014-06-22T08:15:20Z</time>
      </trkpt>
      <trkpt lat="43.56329" lon="2.69457">
        <ele>942.7</ele>
        <time>2014-06-22T08:16:05Z</time>
      </trkpt>
      <trkpt lat="43.56298" lon="2.69551">
        <ele>946.2</ele>
        <time>2014-06-22T08:16:48Z</time>
      </trkpt>
      <trkpt lat="43.56228" lon="2.69681">
        <ele>947.8</ele>
        <time>2014-06-22T08:17:46Z</time>
      </trkpt>
      <trkpt lat="43.5619" lon="2.70024">
        <ele>952.4</ele>
        <time>2014-06-22T08:19:36Z</time>
      </trkpt>
      <trkpt lat="43.56155" lon="2.70138">
        <ele>952</ele>
        <time>2014-06-22T08:20:11Z</time>
      </trkpt>
      <trkpt lat="43.56134" lon="2.70187">
        <ele>952.1</ele>
        <time>2014-06-22T08:20:23Z</time>
      </trkpt>
      <trkpt lat="43.56109" lon="2.70331">
        <ele>951</ele>
        <time>2014-06-22T08:21:04Z</time>
      </trkpt>
      <trkpt lat="43.56083" lon="2.70348">
        <ele>946.8</ele>
        <time>2014-06-22T08:26:52Z</time>
      </trkpt>
      <trkpt lat="43.56018" lon="2.70336">
        <ele>941.5</ele>
        <time>2014-06-22T08:27:03Z</time>
      </trkpt>
      <trkpt lat="43.55898" lon="2.70385">
        <ele>936.5</ele>
        <time>2014-06-22T08:27:24Z</time>
      </trkpt>
      <trkpt lat="43.55775" lon="2.70402">
        <ele>931.2</ele>
        <time>2014-06-22T08:27:42Z</time>
      </trkpt>
      <trkpt lat="43.5571" lon="2.70453">
        <ele>931.1</ele>
        <time>2014-06-22T08:27:53Z</time>
      </trkpt>
      <trkpt lat="43.55686" lon="2.70547">
        <ele>928.7</ele>
        <time>2014-06-22T08:28:04Z</time>
      </trkpt>
      <trkpt lat="43.5551" lon="2.70551">
        <ele>918.5</ele>
        <time>2014-06-22T08:28:38Z</time>
      </trkpt>
      <trkpt lat="43.55371" lon="2.70648">
        <ele>925.7</ele>
        <time>2014-06-22T08:29:32Z</time>
      </trkpt>
      <trkpt lat="43.55323" lon="2.70711">
        <ele>931.6</ele>
        <time>2014-06-22T08:30:10Z</time>
      </trkpt>
      <trkpt lat="43.55153" lon="2.7109">
        <ele>943</ele>
        <time>2014-06-22T08:32:16Z</time>
      </trkpt>
      <trkpt lat="43.55131" lon="2.71144">
        <ele>942.7</ele>
        <time>2014-06-22T08:32:30Z</time>
      </trkpt>
      <trkpt lat="43.55058" lon="2.71653">
        <ele>943.7</ele>
        <time>2014-06-22T08:34:02Z</time>
      </trkpt>
      <trkpt lat="43.55049" lon="2.71812">
        <ele>949.1</ele>
        <time>2014-06-22T08:34:43Z</time>
      </trkpt>
      <trkpt lat="43.55058" lon="2.71879">
        <ele>949.7</ele>
        <time>2014-06-22T08:34:59Z</time>
      </trkpt>
      <trkpt lat="43.55113" lon="2.71931">
        <ele>947.4</ele>
        <time>2014-06-22T08:35:17Z</time>
      </trkpt>
      <trkpt lat="43.5517" lon="2.71895">
        <ele>943.3</ele>
        <time>2014-06-22T08:36:12Z</time>
      </trkpt>
      <trkpt lat="43.55197" lon="2.71908">
        <ele>939.7</ele>
        <time>2014-06-22T08:37:09Z</time>
      </trkpt>
      <trkpt lat="43.55113" lon="2.71929">
        <ele>945.3</ele>
        <time>2014-06-22T08:37:44Z</time>
      </trkpt>
      <trkpt lat="43.55064" lon="2.71893">
        <ele>947.6</ele>
        <time>2014-06-22T08:38:06Z</time>
      </trkpt>
      <trkpt lat="43.55044" lon="2.71743">
        <ele>942.8</ele>
        <time>2014-06-22T08:46:27Z</time>
      </trkpt>
      <trkpt lat="43.55102" lon="2.71407">
        <ele>933.9</ele>
        <time>2014-06-22T08:47:04Z</time>
      </trkpt>
      <trkpt lat="43.55103" lon="2.71281">
        <ele>934.6</ele>
        <time>2014-06-22T08:47:21Z</time>
      </trkpt>
      <trkpt lat="43.5514" lon="2.7111">
        <ele>936.8</ele>
        <time>2014-06-22T08:47:50Z</time>
      </trkpt>
      <trkpt lat="43.55282" lon="2.70824">
        <ele>930.2</ele>
        <time>2014-06-22T08:48:30Z</time>
      </trkpt>
      <trkpt lat="43.55311" lon="2.70736">
        <ele>926.6</ele>
        <time>2014-06-22T08:49:31Z</time>
      </trkpt>
      <trkpt lat="43.55357" lon="2.70676">
        <ele>920.9</ele>
        <time>2014-06-22T08:49:44Z</time>
      </trkpt>
      <trkpt lat="43.55457" lon="2.706">
        <ele>911.2</ele>
        <time>2014-06-22T08:50:01Z</time>
      </trkpt>
      <trkpt lat="43.55469" lon="2.70543">
        <ele>909.9</ele>
        <time>2014-06-22T08:50:09Z</time>
      </trkpt>
      <trkpt lat="43.55454" lon="2.70488">
        <ele>907.5</ele>
        <time>2014-06-22T08:50:49Z</time>
      </trkpt>
      <trkpt lat="43.55293" lon="2.70354">
        <ele>905.6</ele>
        <time>2014-06-22T08:51:37Z</time>
      </trkpt>
      <trkpt lat="43.55223" lon="2.70351">
        <ele>905</ele>
        <time>2014-06-22T08:51:50Z</time>
      </trkpt>
      <trkpt lat="43.55038" lon="2.70438">
        <ele>904.4</ele>
        <time>2014-06-22T08:52:33Z</time>
      </trkpt>
      <trkpt lat="43.54933" lon="2.70422">
        <ele>907.4</ele>
        <time>2014-06-22T08:53:01Z</time>
      </trkpt>
      <trkpt lat="43.54922" lon="2.70472">
        <ele>912.2</ele>
        <time>2014-06-22T08:53:27Z</time>
      </trkpt>
      <trkpt lat="43.54892" lon="2.70554">
        <ele>916</ele>
        <time>2014-06-22T08:54:05Z</time>
      </trkpt>
      <trkpt lat="43.54655" lon="2.70594">
        <ele>923.9</ele>
        <time>2014-06-22T08:55:39Z</time>
      </trkpt>
      <trkpt lat="43.54582" lon="2.7059">
        <ele>921.5</ele>
        <time>2014-06-22T08:55:59Z</time>
      </trkpt>
      <trkpt lat="43.54447" lon="2.70618">
        <ele>914.3</ele>
        <time>2014-06-22T08:56:22Z</time>
      </trkpt>
      <trkpt lat="43.54391" lon="2.70642">
        <ele>909.9</ele>
        <time>2014-06-22T08:56:33Z</time>
      </trkpt>
      <trkpt lat="43.54282" lon="2.70639">
        <ele>904.2</ele>
        <time>2014-06-22T08:56:59Z</time>
      </trkpt>
      <trkpt lat="43.5408" lon="2.7058">
        <ele>895.6</ele>
        <time>2014-06-22T08:57:44Z</time>
      </trkpt>
      <trkpt lat="43.54" lon="2.70583">
        <ele>892.8</ele>
        <time>2014-06-22T08:57:58Z</time>
      </trkpt>
      <trkpt lat="43.539" lon="2.70628">
        <ele>887.7</ele>
        <time>2014-06-22T08:58:17Z</time>
      </trkpt>
      <trkpt lat="43.53914" lon="2.70656">
        <ele>885.2</ele>
        <time>2014-06-22T09:03:04Z</time>
      </trkpt>
      <trkpt lat="43.53944" lon="2.7069">
        <ele>885</ele>
        <time>2014-06-22T09:03:14Z</time>
      </trkpt>
      <trkpt lat="43.53964" lon="2.70855">
        <ele>884.9</ele>
        <time>2014-06-22T09:03:44Z</time>
      </trkpt>
      <trkpt lat="43.54025" lon="2.70867">
        <ele>885.2</ele>
        <time>2014-06-22T09:03:59Z</time>
      </trkpt>
      <trkpt lat="43.54022" lon="2.70931">
        <ele>885</ele>
        <time>2014-06-22T09:04:10Z</time>
      </trkpt>
      <trkpt lat="43.54011" lon="2.70976">
        <ele>885.4</ele>
        <time>2014-06-22T09:04:18Z</time>
      </trkpt>
      <trkpt lat="43.54015" lon="2.71092">
        <ele>882.5</ele>
        <time>2014-06-22T09:04:32Z</time>
      </trkpt>
      <trkpt lat="43.54049" lon="2.71159">
        <ele>879.1</ele>
        <time>2014-06-22T09:04:41Z</time>
      </trkpt>
      <trkpt lat="43.54053" lon="2.71234">
        <ele>878</ele>
        <time>2014-06-22T09:04:50Z</time>
      </trkpt>
      <trkpt lat="43.54018" lon="2.71343">
        <ele>880.2</ele>
        <time>2014-06-22T09:05:11Z</time>
      </trkpt>
      <trkpt lat="43.53999" lon="2.71582">
        <ele>880</ele>
        <time>2014-06-22T09:06:20Z</time>
      </trkpt>
      <trkpt lat="43.53899" lon="2.71687">
        <ele>878.4</ele>
        <time>2014-06-22T09:06:50Z</time>
      </trkpt>
      <trkpt lat="43.53874" lon="2.71729">
        <ele>879.9</ele>
        <time>2014-06-22T09:07:00Z</time>
      </trkpt>
      <trkpt lat="43.53789" lon="2.71997">
        <ele>895.8</ele>
        <time>2014-06-22T09:08:35Z</time>
      </trkpt>
      <trkpt lat="43.53761" lon="2.72119">
        <ele>898.7</ele>
        <time>2014-06-22T09:09:13Z</time>
      </trkpt>
      <trkpt lat="43.5378" lon="2.7218">
        <ele>896.6</ele>
        <time>2014-06-22T09:09:22Z</time>
      </trkpt>
      <trkpt lat="43.5383" lon="2.72276">
        <ele>892.9</ele>
        <time>2014-06-22T09:09:33Z</time>
      </trkpt>
      <trkpt lat="43.53837" lon="2.72376">
        <ele>892.7</ele>
        <time>2014-06-22T09:09:47Z</time>
      </trkpt>
      <trkpt lat="43.5381" lon="2.72493">
        <ele>885.3</ele>
        <time>2014-06-22T09:09:59Z</time>
      </trkpt>
      <trkpt lat="43.53759" lon="2.72586">
        <ele>882.5</ele>
        <time>2014-06-22T09:13:32Z</time>
      </trkpt>
      <trkpt lat="43.53744" lon="2.72668">
        <ele>883.2</ele>
        <time>2014-06-22T09:13:48Z</time>
      </trkpt>
      <trkpt lat="43.53782" lon="2.72772">
        <ele>888.5</ele>
        <time>2014-06-22T09:14:22Z</time>
      </trkpt>
      <trkpt lat="43.53868" lon="2.72836">
        <ele>892.8</ele>
        <time>2014-06-22T09:14:55Z</time>
      </trkpt>
      <trkpt lat="43.5392" lon="2.72904">
        <ele>895.4</ele>
        <time>2014-06-22T09:15:21Z</time>
      </trkpt>
      <trkpt lat="43.53959" lon="2.7303">
        <ele>898.3</ele>
        <time>2014-06-22T09:15:56Z</time>
      </trkpt>
      <trkpt lat="43.54027" lon="2.73102">
        <ele>902.3</ele>
        <time>2014-06-22T09:16:28Z</time>
      </trkpt>
      <trkpt lat="43.5408" lon="2.73205">
        <ele>906.5</ele>
        <time>2014-06-22T09:17:02Z</time>
      </trkpt>
      <trkpt lat="43.54068" lon="2.7333">
        <ele>908</ele>
        <time>2014-06-22T09:17:32Z</time>
      </trkpt>
      <trkpt lat="43.54051" lon="2.73363">
        <ele>908</ele>
        <time>2014-06-22T09:17:40Z</time>
      </trkpt>
      <trkpt lat="43.53968" lon="2.73447">
        <ele>906.7</ele>
        <time>2014-06-22T09:18:05Z</time>
      </trkpt>
      <trkpt lat="43.53992" lon="2.73489">
        <ele>905.9</ele>
        <time>2014-06-22T09:18:28Z</time>
      </trkpt>
      <trkpt lat="43.54133" lon="2.73459">
        <ele>901.8</ele>
        <time>2014-06-22T09:18:55Z</time>
      </trkpt>
      <trkpt lat="43.54202" lon="2.73578">
        <ele>901.9</ele>
        <time>2014-06-22T09:19:20Z</time>
      </trkpt>
      <trkpt lat="43.5421" lon="2.73677">
        <ele>903.9</ele>
        <time>2014-06-22T09:19:38Z</time>
      </trkpt>
      <trkpt lat="43.54285" lon="2.7381">
        <ele>896</ele>
        <time>2014-06-22T09:19:55Z</time>
      </trkpt>
      <trkpt lat="43.54361" lon="2.7388">
        <ele>892</ele>
        <time>2014-06-22T09:20:06Z</time>
      </trkpt>
      <trkpt lat="43.54368" lon="2.74122">
        <ele>892.8</ele>
        <time>2014-06-22T09:21:30Z</time>
      </trkpt>
      <trkpt lat="43.54393" lon="2.74284">
        <ele>897.7</ele>
        <time>2014-06-22T09:22:14Z</time>
      </trkpt>
      <trkpt lat="43.54391" lon="2.74514">
        <ele>900</ele>
        <time>2014-06-22T09:24:38Z</time>
      </trkpt>
      <trkpt lat="43.54415" lon="2.74527">
        <ele>899.6</ele>
        <time>2014-06-22T09:24:55Z</time>
      </trkpt>
      <trkpt lat="43.54514" lon="2.74374">
        <ele>898.6</ele>
        <time>2014-06-22T09:25:22Z</time>
      </trkpt>
      <trkpt lat="43.54556" lon="2.74522">
        <ele>897.9</ele>
        <time>2014-06-22T09:26:42Z</time>
      </trkpt>
      <trkpt lat="43.54624" lon="2.74541">
        <ele>896.6</ele>
        <time>2014-06-22T09:26:59Z</time>
      </trkpt>
      <trkpt lat="43.54673" lon="2.74595">
        <ele>895.7</ele>
        <time>2014-06-22T09:27:12Z</time>
      </trkpt>
      <trkpt lat="43.54663" lon="2.74679">
        <ele>898.7</ele>
        <time>2014-06-22T09:27:35Z</time>
      </trkpt>
      <trkpt lat="43.54707" lon="2.74826">
        <ele>904</ele>
        <time>2014-06-22T09:28:23Z</time>
      </trkpt>
      <trkpt lat="43.54717" lon="2.74938">
        <ele>908.1</ele>
        <time>2014-06-22T09:28:58Z</time>
      </trkpt>
      <trkpt lat="43.54745" lon="2.75066">
        <ele>910.9</ele>
        <time>2014-06-22T09:29:35Z</time>
      </trkpt>
      <trkpt lat="43.54758" lon="2.75216">
        <ele>915.7</ele>
        <time>2014-06-22T09:30:53Z</time>
      </trkpt>
      <trkpt lat="43.54804" lon="2.75242">
        <ele>917.8</ele>
        <time>2014-06-22T09:35:54Z</time>
      </trkpt>
      <trkpt lat="43.54904" lon="2.75216">
        <ele>919.9</ele>
        <time>2014-06-22T09:36:32Z</time>
      </trkpt>
      <trkpt lat="43.55091" lon="2.75445">
        <ele>921.3</ele>
        <time>2014-06-22T09:38:14Z</time>
      </trkpt>
      <trkpt lat="43.55161" lon="2.75523">
        <ele>919</ele>
        <time>2014-06-22T09:38:39Z</time>
      </trkpt>
      <trkpt lat="43.55154" lon="2.75569">
        <ele>916</ele>
        <time>2014-06-22T09:38:48Z</time>
      </trkpt>
      <trkpt lat="43.5508" lon="2.75718">
        <ele>918.1</ele>
        <time>2014-06-22T09:39:18Z</time>
      </trkpt>
      <trkpt lat="43.55044" lon="2.75743">
        <ele>919.7</ele>
        <time>2014-06-22T09:39:33Z</time>
      </trkpt>
      <trkpt lat="43.5499" lon="2.75765">
        <ele>915.6</ele>
        <time>2014-06-22T09:39:50Z</time>
      </trkpt>
      <trkpt lat="43.54976" lon="2.75835">
        <ele>910.9</ele>
        <time>2014-06-22T09:40:01Z</time>
      </trkpt>
      <trkpt lat="43.54923" lon="2.75933">
        <ele>902.5</ele>
        <time>2014-06-22T09:40:36Z</time>
      </trkpt>
      <trkpt lat="43.54884" lon="2.75949">
        <ele>902</ele>
        <time>2014-06-22T09:40:48Z</time>
      </trkpt>
      <trkpt lat="43.54776" lon="2.75946">
        <ele>899.9</ele>
        <time>2014-06-22T09:41:11Z</time>
      </trkpt>
      <trkpt lat="43.54741" lon="2.7599">
        <ele>900.4</ele>
        <time>2014-06-22T09:41:23Z</time>
      </trkpt>
      <trkpt lat="43.5468" lon="2.75958">
        <ele>906.4</ele>
        <time>2014-06-22T09:41:53Z</time>
      </trkpt>
      <trkpt lat="43.5457" lon="2.75929">
        <ele>914.4</ele>
        <time>2014-06-22T09:42:44Z</time>
      </trkpt>
      <trkpt lat="43.54486" lon="2.75944">
        <ele>920.2</ele>
        <time>2014-06-22T09:43:23Z</time>
      </trkpt>
      <trkpt lat="43.5445" lon="2.7593">
        <ele>921.6</ele>
        <time>2014-06-22T09:43:39Z</time>
      </trkpt>
      <trkpt lat="43.54367" lon="2.75838">
        <ele>928.3</ele>
        <time>2014-06-22T09:44:42Z</time>
      </trkpt>
      <trkpt lat="43.54368" lon="2.75835">
        <ele>928.9</ele>
        <time>2014-06-22T09:54:37Z</time>
      </trkpt>
      <trkpt lat="43.54341" lon="2.75946">
        <ele>939.2</ele>
        <time>2014-06-22T09:56:15Z</time>
      </trkpt>
      <trkpt lat="43.5429" lon="2.76049">
        <ele>944.5</ele>
        <time>2014-06-22T09:57:10Z</time>
      </trkpt>
      <trkpt lat="43.54214" lon="2.76134">
        <ele>951.2</ele>
        <time>2014-06-22T09:58:05Z</time>
      </trkpt>
      <trkpt lat="43.54104" lon="2.7622">
        <ele>963.2</ele>
        <time>2014-06-22T09:59:30Z</time>
      </trkpt>
      <trkpt lat="43.54031" lon="2.76442">
        <ele>958.8</ele>
        <time>2014-06-22T10:04:53Z</time>
      </trkpt>
      <trkpt lat="43.54012" lon="2.76819">
        <ele>953.9</ele>
        <time>2014-06-22T10:05:59Z</time>
      </trkpt>
      <trkpt lat="43.53953" lon="2.77205">
        <ele>955.1</ele>
        <time>2014-06-22T10:07:41Z</time>
      </trkpt>
      <trkpt lat="43.53785" lon="2.77295">
        <ele>963.9</ele>
        <time>2014-06-22T10:11:13Z</time>
      </trkpt>
      <trkpt lat="43.53747" lon="2.77359">
        <ele>963.6</ele>
        <time>2014-06-22T10:11:38Z</time>
      </trkpt>
      <trkpt lat="43.53755" lon="2.77413">
        <ele>961.3</ele>
        <time>2014-06-22T10:11:48Z</time>
      </trkpt>
      <trkpt lat="43.53711" lon="2.77758">
        <ele>963.4</ele>
        <time>2014-06-22T10:13:16Z</time>
      </trkpt>
      <trkpt lat="43.53717" lon="2.7789">
        <ele>964.5</ele>
        <time>2014-06-22T10:13:44Z</time>
      </trkpt>
      <trkpt lat="43.53812" lon="2.78">
        <ele>958</ele>
        <time>2014-06-22T10:14:08Z</time>
      </trkpt>
      <trkpt lat="43.53874" lon="2.78003">
        <ele>953.6</ele>
        <time>2014-06-22T10:14:20Z</time>
      </trkpt>
      <trkpt lat="43.53907" lon="2.7804">
        <ele>950.9</ele>
        <time>2014-06-22T10:14:26Z</time>
      </trkpt>
      <trkpt lat="43.53953" lon="2.78157">
        <ele>943.3</ele>
        <time>2014-06-22T10:14:41Z</time>
      </trkpt>
      <trkpt lat="43.53949" lon="2.78232">
        <ele>939.8</ele>
        <time>2014-06-22T10:14:49Z</time>
      </trkpt>
      <trkpt lat="43.54" lon="2.78259">
        <ele>937.1</ele>
        <time>2014-06-22T10:15:03Z</time>
      </trkpt>
      <trkpt lat="43.54106" lon="2.78348">
        <ele>931.8</ele>
        <time>2014-06-22T10:15:27Z</time>
      </trkpt>
      <trkpt lat="43.54192" lon="2.78398">
        <ele>928.2</ele>
        <time>2014-06-22T10:15:42Z</time>
      </trkpt>
      <trkpt lat="43.54301" lon="2.7841">
        <ele>927.5</ele>
        <time>2014-06-22T10:16:04Z</time>
      </trkpt>
      <trkpt lat="43.5434" lon="2.78438">
        <ele>927.7</ele>
        <time>2014-06-22T10:16:55Z</time>
      </trkpt>
      <trkpt lat="43.54363" lon="2.78515">
        <ele>929.1</ele>
        <time>2014-06-22T10:17:14Z</time>
      </trkpt>
      <trkpt lat="43.54478" lon="2.7853">
        <ele>933.5</ele>
        <time>2014-06-22T10:18:07Z</time>
      </trkpt>
      <trkpt lat="43.54617" lon="2.78462">
        <ele>938.1</ele>
        <time>2014-06-22T10:19:04Z</time>
      </trkpt>
      <trkpt lat="43.54643" lon="2.78436">
        <ele>938.6</ele>
        <time>2014-06-22T10:19:16Z</time>
      </trkpt>
      <trkpt lat="43.54737" lon="2.78292">
        <ele>943.2</ele>
        <time>2014-06-22T10:20:07Z</time>
      </trkpt>
      <trkpt lat="43.54787" lon="2.78136">
        <ele>946.6</ele>
        <time>2014-06-22T10:20:51Z</time>
      </trkpt>
      <trkpt lat="43.5482" lon="2.77982">
        <ele>950</ele>
        <time>2014-06-22T10:21:35Z</time>
      </trkpt>
      <trkpt lat="43.54885" lon="2.77894">
        <ele>952.9</ele>
        <time>2014-06-22T10:23:59Z</time>
      </trkpt>
      <trkpt lat="43.54992" lon="2.77928">
        <ele>954.2</ele>
        <time>2014-06-22T10:24:43Z</time>
      </trkpt>
      <trkpt lat="43.55074" lon="2.78056">
        <ele>956.3</ele>
        <time>2014-06-22T10:25:20Z</time>
      </trkpt>
      <trkpt lat="43.55167" lon="2.78154">
        <ele>959.5</ele>
        <time>2014-06-22T10:25:57Z</time>
      </trkpt>
      <trkpt lat="43.552" lon="2.78201">
        <ele>961</ele>
        <time>2014-06-22T10:26:13Z</time>
      </trkpt>
      <trkpt lat="43.55306" lon="2.78155">
        <ele>960.6</ele>
        <time>2014-06-22T10:26:51Z</time>
      </trkpt>
      <trkpt lat="43.55448" lon="2.78163">
        <ele>961.2</ele>
        <time>2014-06-22T10:27:41Z</time>
      </trkpt>
      <trkpt lat="43.55516" lon="2.78212">
        <ele>962.5</ele>
        <time>2014-06-22T10:28:27Z</time>
      </trkpt>
      <trkpt lat="43.55404" lon="2.78555">
        <ele>977.1</ele>
        <time>2014-06-22T10:30:13Z</time>
      </trkpt>
      <trkpt lat="43.5531" lon="2.78825">
        <ele>985.3</ele>
        <time>2014-06-22T10:31:26Z</time>
      </trkpt>
      <trkpt lat="43.55185" lon="2.79197">
        <ele>980.7</ele>
        <time>2014-06-22T10:35:53Z</time>
      </trkpt>
      <trkpt lat="43.55307" lon="2.79339">
        <ele>967.2</ele>
        <time>2014-06-22T10:36:35Z</time>
      </trkpt>
      <trkpt lat="43.55309" lon="2.79498">
        <ele>966</ele>
        <time>2014-06-22T10:37:13Z</time>
      </trkpt>
      <trkpt lat="43.55341" lon="2.7956">
        <ele>968.3</ele>
        <time>2014-06-22T10:37:38Z</time>
      </trkpt>
      <trkpt lat="43.55312" lon="2.79671">
        <ele>973.5</ele>
        <time>2014-06-22T10:38:15Z</time>
      </trkpt>
      <trkpt lat="43.55306" lon="2.79725">
        <ele>975.7</ele>
        <time>2014-06-22T10:38:35Z</time>
      </trkpt>
      <trkpt lat="43.55243" lon="2.79865">
        <ele>982.2</ele>
        <time>2014-06-22T10:41:01Z</time>
      </trkpt>
      <trkpt lat="43.55281" lon="2.79892">
        <ele>981.4</ele>
        <time>2014-06-22T10:41:35Z</time>
      </trkpt>
      <trkpt lat="43.55394" lon="2.7989">
        <ele>977.1</ele>
        <time>2014-06-22T10:41:57Z</time>
      </trkpt>
      <trkpt lat="43.55627" lon="2.79936">
        <ele>974.8</ele>
        <time>2014-06-22T10:42:38Z</time>
      </trkpt>
      <trkpt lat="43.55655" lon="2.79959">
        <ele>975.4</ele>
        <time>2014-06-22T10:42:45Z</time>
      </trkpt>
      <trkpt lat="43.55833" lon="2.80217">
        <ele>971.5</ele>
        <time>2014-06-22T10:43:33Z</time>
      </trkpt>
      <trkpt lat="43.55863" lon="2.80234">
        <ele>970.6</ele>
        <time>2014-06-22T10:43:40Z</time>
      </trkpt>
      <trkpt lat="43.55926" lon="2.80153">
        <ele>974.1</ele>
        <time>2014-06-22T10:44:03Z</time>
      </trkpt>
      <trkpt lat="43.56039" lon="2.80098">
        <ele>975.8</ele>
        <time>2014-06-22T10:44:34Z</time>
      </trkpt>
      <trkpt lat="43.56123" lon="2.80107">
        <ele>975.7</ele>
        <time>2014-06-22T10:44:54Z</time>
      </trkpt>
      <trkpt lat="43.56228" lon="2.80081">
        <ele>977.1</ele>
        <time>2014-06-22T10:45:20Z</time>
      </trkpt>
      <trkpt lat="43.56311" lon="2.80156">
        <ele>974</ele>
        <time>2014-06-22T10:45:43Z</time>
      </trkpt>
      <trkpt lat="43.56427" lon="2.80165">
        <ele>970.5</ele>
        <time>2014-06-22T10:46:06Z</time>
      </trkpt>
      <trkpt lat="43.56486" lon="2.80146">
        <ele>971</ele>
        <time>2014-06-22T10:46:18Z</time>
      </trkpt>
      <trkpt lat="43.56598" lon="2.80209">
        <ele>973.5</ele>
        <time>2014-06-22T10:46:45Z</time>
      </trkpt>
      <trkpt lat="43.56688" lon="2.80227">
        <ele>976.2</ele>
        <time>2014-06-22T10:47:11Z</time>
      </trkpt>
      <trkpt lat="43.56777" lon="2.80332">
        <ele>972.6</ele>
        <time>2014-06-22T10:47:53Z</time>
      </trkpt>
      <trkpt lat="43.56812" lon="2.80442">
        <ele>974.3</ele>
        <time>2014-06-22T10:48:16Z</time>
      </trkpt>
      <trkpt lat="43.56884" lon="2.80479">
        <ele>978.7</ele>
        <time>2014-06-22T10:48:49Z</time>
      </trkpt>
      <trkpt lat="43.56948" lon="2.8049">
        <ele>984.7</ele>
        <time>2014-06-22T10:49:23Z</time>
      </trkpt>
      <trkpt lat="43.57162" lon="2.80685">
        <ele>989.7</ele>
        <time>2014-06-22T10:51:13Z</time>
      </trkpt>
      <trkpt lat="43.57219" lon="2.80833">
        <ele>988.3</ele>
        <time>2014-06-22T10:51:39Z</time>
      </trkpt>
      <trkpt lat="43.57237" lon="2.81058">
        <ele>990.5</ele>
        <time>2014-06-22T10:52:20Z</time>
      </trkpt>
      <trkpt lat="43.5724" lon="2.81219">
        <ele>991.2</ele>
        <time>2014-06-22T10:52:53Z</time>
      </trkpt>
      <trkpt lat="43.57222" lon="2.81405">
        <ele>990.6</ele>
        <time>2014-06-22T10:53:30Z</time>
      </trkpt>
      <trkpt lat="43.57165" lon="2.81624">
        <ele>992.9</ele>
        <time>2014-06-22T10:54:14Z</time>
      </trkpt>
      <trkpt lat="43.5718" lon="2.81898">
        <ele>1003.8</ele>
        <time>2014-06-22T10:55:30Z</time>
      </trkpt>
      <trkpt lat="43.57218" lon="2.81968">
        <ele>1008.1</ele>
        <time>2014-06-22T10:56:03Z</time>
      </trkpt>
      <trkpt lat="43.57256" lon="2.81991">
        <ele>1008.4</ele>
        <time>2014-06-22T10:56:22Z</time>
      </trkpt>
      <trkpt lat="43.57284" lon="2.82033">
        <ele>1011.1</ele>
        <time>2014-06-22T10:56:52Z</time>
      </trkpt>
      <trkpt lat="43.57243" lon="2.82238">
        <ele>1019</ele>
        <time>2014-06-22T10:58:53Z</time>
      </trkpt>
      <trkpt lat="43.57418" lon="2.82361">
        <ele>1028</ele>
        <time>2014-06-22T11:00:39Z</time>
      </trkpt>
      <trkpt lat="43.57539" lon="2.82354">
        <ele>1024.3</ele>
        <time>2014-06-22T11:01:10Z</time>
      </trkpt>
      <trkpt lat="43.57689" lon="2.82409">
        <ele>1032.9</ele>
        <time>2014-06-22T11:02:17Z</time>
      </trkpt>
      <trkpt lat="43.57716" lon="2.82433">
        <ele>1033.7</ele>
        <time>2014-06-22T11:02:32Z</time>
      </trkpt>
      <trkpt lat="43.57846" lon="2.82472">
        <ele>1031.3</ele>
        <time>2014-06-22T11:03:07Z</time>
      </trkpt>
      <trkpt lat="43.57907" lon="2.82503">
        <ele>1031.9</ele>
        <time>2014-06-22T11:03:22Z</time>
      </trkpt>
      <trkpt lat="43.57941" lon="2.8264">
        <ele>1036.4</ele>
        <time>2014-06-22T11:03:55Z</time>
      </trkpt>
      <trkpt lat="43.58055" lon="2.82741">
        <ele>1035.5</ele>
        <time>2014-06-22T11:04:33Z</time>
      </trkpt>
      <trkpt lat="43.58063" lon="2.82785">
        <ele>1034.5</ele>
        <time>2014-06-22T11:04:42Z</time>
      </trkpt>
      <trkpt lat="43.57962" lon="2.82873">
        <ele>1032.2</ele>
        <time>2014-06-22T11:05:09Z</time>
      </trkpt>
      <trkpt lat="43.57928" lon="2.8295">
        <ele>1029</ele>
        <time>2014-06-22T11:05:20Z</time>
      </trkpt>
      <trkpt lat="43.57921" lon="2.83061">
        <ele>1023.8</ele>
        <time>2014-06-22T11:05:39Z</time>
      </trkpt>
      <trkpt lat="43.57994" lon="2.83104">
        <ele>1018</ele>
        <time>2014-06-22T11:05:54Z</time>
      </trkpt>
      <trkpt lat="43.58034" lon="2.83206">
        <ele>1014.2</ele>
        <time>2014-06-22T11:06:09Z</time>
      </trkpt>
      <trkpt lat="43.5804" lon="2.83332">
        <ele>1012.9</ele>
        <time>2014-06-22T11:06:29Z</time>
      </trkpt>
      <trkpt lat="43.58098" lon="2.83414">
        <ele>1015.1</ele>
        <time>2014-06-22T11:06:52Z</time>
      </trkpt>
      <trkpt lat="43.58187" lon="2.83457">
        <ele>1016.5</ele>
        <time>2014-06-22T11:07:19Z</time>
      </trkpt>
      <trkpt lat="43.5827" lon="2.83442">
        <ele>1022.2</ele>
        <time>2014-06-22T11:07:49Z</time>
      </trkpt>
      <trkpt lat="43.58372" lon="2.83389">
        <ele>1031.8</ele>
        <time>2014-06-22T11:08:52Z</time>
      </trkpt>
      <trkpt lat="43.58446" lon="2.83296">
        <ele>1040</ele>
        <time>2014-06-22T11:09:53Z</time>
      </trkpt>
      <trkpt lat="43.5862" lon="2.83252">
        <ele>1052.9</ele>
        <time>2014-06-22T11:11:53Z</time>
      </trkpt>
      <trkpt lat="43.58625" lon="2.83627">
        <ele>1051.7</ele>
        <time>2014-06-22T11:13:25Z</time>
      </trkpt>
      <trkpt lat="43.58662" lon="2.83665">
        <ele>1049.7</ele>
        <time>2014-06-22T11:16:23Z</time>
      </trkpt>
      <trkpt lat="43.58718" lon="2.83651">
        <ele>1047.8</ele>
        <time>2014-06-22T11:16:36Z</time>
      </trkpt>
      <trkpt lat="43.58828" lon="2.8356">
        <ele>1046.3</ele>
        <time>2014-06-22T11:19:11Z</time>
      </trkpt>
      <trkpt lat="43.58866" lon="2.83564">
        <ele>1046.8</ele>
        <time>2014-06-22T11:19:19Z</time>
      </trkpt>
      <trkpt lat="43.58966" lon="2.83657">
        <ele>1046</ele>
        <time>2014-06-22T11:19:44Z</time>
      </trkpt>
      <trkpt lat="43.59021" lon="2.83658">
        <ele>1044.3</ele>
        <time>2014-06-22T11:19:53Z</time>
      </trkpt>
      <trkpt lat="43.59204" lon="2.83569">
        <ele>1032.4</ele>
        <time>2014-06-22T11:20:18Z</time>
      </trkpt>
      <trkpt lat="43.59254" lon="2.83595">
        <ele>1027.2</ele>
        <time>2014-06-22T11:20:27Z</time>
      </trkpt>
      <trkpt lat="43.59248" lon="2.83641">
        <ele>1024.1</ele>
        <time>2014-06-22T11:20:34Z</time>
      </trkpt>
      <trkpt lat="43.59223" lon="2.83708">
        <ele>1019.8</ele>
        <time>2014-06-22T11:20:49Z</time>
      </trkpt>
      <trkpt lat="43.59236" lon="2.83806">
        <ele>1015.8</ele>
        <time>2014-06-22T11:21:01Z</time>
      </trkpt>
      <trkpt lat="43.59181" lon="2.83965">
        <ele>1008.6</ele>
        <time>2014-06-22T11:21:18Z</time>
      </trkpt>
      <trkpt lat="43.5919" lon="2.84059">
        <ele>1005.1</ele>
        <time>2014-06-22T11:21:27Z</time>
      </trkpt>
      <trkpt lat="43.59175" lon="2.84128">
        <ele>1003.7</ele>
        <time>2014-06-22T11:21:34Z</time>
      </trkpt>
      <trkpt lat="43.59206" lon="2.84246">
        <ele>1000.1</ele>
        <time>2014-06-22T11:21:47Z</time>
      </trkpt>
      <trkpt lat="43.59273" lon="2.843">
        <ele>997.1</ele>
        <time>2014-06-22T11:21:59Z</time>
      </trkpt>
      <trkpt lat="43.59318" lon="2.84278">
        <ele>995.4</ele>
        <time>2014-06-22T11:22:06Z</time>
      </trkpt>
      <trkpt lat="43.59338" lon="2.8422">
        <ele>993.7</ele>
        <time>2014-06-22T11:22:13Z</time>
      </trkpt>
      <trkpt lat="43.59341" lon="2.84125">
        <ele>990.4</ele>
        <time>2014-06-22T11:22:23Z</time>
      </trkpt>
      <trkpt lat="43.59393" lon="2.84092">
        <ele>986.9</ele>
        <time>2014-06-22T11:22:32Z</time>
      </trkpt>
      <trkpt lat="43.59536" lon="2.84108">
        <ele>980</ele>
        <time>2014-06-22T11:22:51Z</time>
      </trkpt>
      <trkpt lat="43.59711" lon="2.84047">
        <ele>972.5</ele>
        <time>2014-06-22T11:23:34Z</time>
      </trkpt>
      <trkpt lat="43.59812" lon="2.83967">
        <ele>965.5</ele>
        <time>2014-06-22T11:23:51Z</time>
      </trkpt>
      <trkpt lat="43.59879" lon="2.83963">
        <ele>960.5</ele>
        <time>2014-06-22T11:24:07Z</time>
      </trkpt>
      <trkpt lat="43.59881" lon="2.83924">
        <ele>961</ele>
        <time>2014-06-22T11:27:59Z</time>
      </trkpt>
      <trkpt lat="43.59968" lon="2.84299">
        <ele>981.8</ele>
        <time>2014-06-22T13:07:45Z</time>
      </trkpt>
      <trkpt lat="43.59994" lon="2.84337">
        <ele>980.6</ele>
        <time>2014-06-22T13:07:54Z</time>
      </trkpt>
      <trkpt lat="43.6003" lon="2.84517">
        <ele>977</ele>
        <time>2014-06-22T13:09:55Z</time>
      </trkpt>
      <trkpt lat="43.60098" lon="2.84556">
        <ele>974.9</ele>
        <time>2014-06-22T13:10:08Z</time>
      </trkpt>
      <trkpt lat="43.60121" lon="2.8461">
        <ele>975.2</ele>
        <time>2014-06-22T13:10:24Z</time>
      </trkpt>
      <trkpt lat="43.60059" lon="2.84757">
        <ele>985.1</ele>
        <time>2014-06-22T13:11:36Z</time>
      </trkpt>
      <trkpt lat="43.60135" lon="2.84751">
        <ele>987.8</ele>
        <time>2014-06-22T13:12:16Z</time>
      </trkpt>
      <trkpt lat="43.6024" lon="2.84764">
        <ele>993.4</ele>
        <time>2014-06-22T13:13:03Z</time>
      </trkpt>
      <trkpt lat="43.60272" lon="2.84842">
        <ele>996.1</ele>
        <time>2014-06-22T13:13:32Z</time>
      </trkpt>
      <trkpt lat="43.60269" lon="2.84892">
        <ele>997.3</ele>
        <time>2014-06-22T13:13:50Z</time>
      </trkpt>
      <trkpt lat="43.60187" lon="2.85012">
        <ele>1000.7</ele>
        <time>2014-06-22T13:14:39Z</time>
      </trkpt>
      <trkpt lat="43.60167" lon="2.85097">
        <ele>1003.8</ele>
        <time>2014-06-22T13:15:03Z</time>
      </trkpt>
      <trkpt lat="43.60119" lon="2.85217">
        <ele>1010.4</ele>
        <time>2014-06-22T13:15:51Z</time>
      </trkpt>
      <trkpt lat="43.6011" lon="2.85276">
        <ele>1012.3</ele>
        <time>2014-06-22T13:16:10Z</time>
      </trkpt>
      <trkpt lat="43.60136" lon="2.85401">
        <ele>1018.7</ele>
        <time>2014-06-22T13:16:57Z</time>
      </trkpt>
      <trkpt lat="43.60195" lon="2.85453">
        <ele>1021</ele>
        <time>2014-06-22T13:17:27Z</time>
      </trkpt>
      <trkpt lat="43.60301" lon="2.85729">
        <ele>1018.3</ele>
        <time>2014-06-22T13:21:23Z</time>
      </trkpt>
      <trkpt lat="43.60319" lon="2.85804">
        <ele>1020.5</ele>
        <time>2014-06-22T13:21:38Z</time>
      </trkpt>
      <trkpt lat="43.6033" lon="2.85943">
        <ele>1021.6</ele>
        <time>2014-06-22T13:22:02Z</time>
      </trkpt>
      <trkpt lat="43.60325" lon="2.86068">
        <ele>1024.8</ele>
        <time>2014-06-22T13:22:29Z</time>
      </trkpt>
      <trkpt lat="43.6031" lon="2.86128">
        <ele>1027</ele>
        <time>2014-06-22T13:22:45Z</time>
      </trkpt>
      <trkpt lat="43.60281" lon="2.86199">
        <ele>1029.4</ele>
        <time>2014-06-22T13:23:06Z</time>
      </trkpt>
      <trkpt lat="43.60262" lon="2.8657">
        <ele>1045.1</ele>
        <time>2014-06-22T13:25:13Z</time>
      </trkpt>
      <trkpt lat="43.60176" lon="2.86771">
        <ele>1042.1</ele>
        <time>2014-06-22T13:25:53Z</time>
      </trkpt>
      <trkpt lat="43.60151" lon="2.86808">
        <ele>1041.7</ele>
        <time>2014-06-22T13:26:00Z</time>
      </trkpt>
      <trkpt lat="43.60022" lon="2.86932">
        <ele>1045.5</ele>
        <time>2014-06-22T13:26:41Z</time>
      </trkpt>
      <trkpt lat="43.60026" lon="2.87027">
        <ele>1041.2</ele>
        <time>2014-06-22T13:26:54Z</time>
      </trkpt>
      <trkpt lat="43.60105" lon="2.87175">
        <ele>1031.5</ele>
        <time>2014-06-22T13:27:08Z</time>
      </trkpt>
      <trkpt lat="43.60144" lon="2.87282">
        <ele>1030.9</ele>
        <time>2014-06-22T13:27:20Z</time>
      </trkpt>
      <trkpt lat="43.60161" lon="2.87423">
        <ele>1043.6</ele>
        <time>2014-06-22T13:28:26Z</time>
      </trkpt>
      <trkpt lat="43.60151" lon="2.87556">
        <ele>1050.5</ele>
        <time>2014-06-22T13:29:19Z</time>
      </trkpt>
      <trkpt lat="43.60108" lon="2.87893">
        <ele>1050.9</ele>
        <time>2014-06-22T13:30:39Z</time>
      </trkpt>
      <trkpt lat="43.60121" lon="2.88084">
        <ele>1049</ele>
        <time>2014-06-22T13:31:07Z</time>
      </trkpt>
      <trkpt lat="43.60162" lon="2.88225">
        <ele>1042.4</ele>
        <time>2014-06-22T13:31:23Z</time>
      </trkpt>
      <trkpt lat="43.60168" lon="2.88349">
        <ele>1035.9</ele>
        <time>2014-06-22T13:31:33Z</time>
      </trkpt>
      <trkpt lat="43.60152" lon="2.88399">
        <ele>1032.9</ele>
        <time>2014-06-22T13:31:37Z</time>
      </trkpt>
      <trkpt lat="43.60139" lon="2.88611">
        <ele>1020.2</ele>
        <time>2014-06-22T13:32:06Z</time>
      </trkpt>
      <trkpt lat="43.60159" lon="2.88638">
        <ele>1017.2</ele>
        <time>2014-06-22T13:40:19Z</time>
      </trkpt>
      <trkpt lat="43.60313" lon="2.88688">
        <ele>1007.6</ele>
        <time>2014-06-22T13:40:40Z</time>
      </trkpt>
      <trkpt lat="43.60433" lon="2.88771">
        <ele>1001.1</ele>
        <time>2014-06-22T13:40:57Z</time>
      </trkpt>
      <trkpt lat="43.60386" lon="2.88844">
        <ele>996.3</ele>
        <time>2014-06-22T13:41:11Z</time>
      </trkpt>
      <trkpt lat="43.60353" lon="2.8886">
        <ele>994</ele>
        <time>2014-06-22T13:41:16Z</time>
      </trkpt>
      <trkpt lat="43.60199" lon="2.88885">
        <ele>981.1</ele>
        <time>2014-06-22T13:41:37Z</time>
      </trkpt>
      <trkpt lat="43.60235" lon="2.88928">
        <ele>976.3</ele>
        <time>2014-06-22T13:41:52Z</time>
      </trkpt>
      <trkpt lat="43.60295" lon="2.89076">
        <ele>975.3</ele>
        <time>2014-06-22T13:42:17Z</time>
      </trkpt>
      <trkpt lat="43.60153" lon="2.89126">
        <ele>989.2</ele>
        <time>2014-06-22T13:43:45Z</time>
      </trkpt>
      <trkpt lat="43.60165" lon="2.89188">
        <ele>993.9</ele>
        <time>2014-06-22T13:44:21Z</time>
      </trkpt>
      <trkpt lat="43.60222" lon="2.89222">
        <ele>999.5</ele>
        <time>2014-06-22T13:45:04Z</time>
      </trkpt>
      <trkpt lat="43.60286" lon="2.89309">
        <ele>1008</ele>
        <time>2014-06-22T13:46:07Z</time>
      </trkpt>
      <trkpt lat="43.60293" lon="2.89427">
        <ele>1016.7</ele>
        <time>2014-06-22T13:47:07Z</time>
      </trkpt>
      <trkpt lat="43.60334" lon="2.89591">
        <ele>1026.7</ele>
        <time>2014-06-22T13:48:26Z</time>
      </trkpt>
      <trkpt lat="43.6035" lon="2.89632">
        <ele>1030.8</ele>
        <time>2014-06-22T13:48:51Z</time>
      </trkpt>
      <trkpt lat="43.60409" lon="2.89726">
        <ele>1036.7</ele>
        <time>2014-06-22T13:49:41Z</time>
      </trkpt>
      <trkpt lat="43.60427" lon="2.8981">
        <ele>1039</ele>
        <time>2014-06-22T13:50:06Z</time>
      </trkpt>
      <trkpt lat="43.60297" lon="2.90036">
        <ele>1052.1</ele>
        <time>2014-06-22T13:51:48Z</time>
      </trkpt>
      <trkpt lat="43.60237" lon="2.90094">
        <ele>1051.8</ele>
        <time>2014-06-22T13:52:16Z</time>
      </trkpt>
      <trkpt lat="43.60257" lon="2.90291">
        <ele>1047.5</ele>
        <time>2014-06-22T14:01:48Z</time>
      </trkpt>
      <trkpt lat="43.60279" lon="2.90334">
        <ele>1046.3</ele>
        <time>2014-06-22T14:01:54Z</time>
      </trkpt>
      <trkpt lat="43.60361" lon="2.90405">
        <ele>1042.7</ele>
        <time>2014-06-22T14:02:08Z</time>
      </trkpt>
      <trkpt lat="43.60383" lon="2.90446">
        <ele>1041.2</ele>
        <time>2014-06-22T14:02:13Z</time>
      </trkpt>
      <trkpt lat="43.60426" lon="2.90615">
        <ele>1036.8</ele>
        <time>2014-06-22T14:02:30Z</time>
      </trkpt>
      <trkpt lat="43.6051" lon="2.90665">
        <ele>1032.8</ele>
        <time>2014-06-22T14:02:42Z</time>
      </trkpt>
      <trkpt lat="43.60806" lon="2.90651">
        <ele>1020.3</ele>
        <time>2014-06-22T14:03:17Z</time>
      </trkpt>
      <trkpt lat="43.60913" lon="2.90615">
        <ele>1016</ele>
        <time>2014-06-22T14:03:31Z</time>
      </trkpt>
      <trkpt lat="43.6106" lon="2.9063">
        <ele>1013.3</ele>
        <time>2014-06-22T14:03:52Z</time>
      </trkpt>
      <trkpt lat="43.61094" lon="2.90655">
        <ele>1012.8</ele>
        <time>2014-06-22T14:03:58Z</time>
      </trkpt>
      <trkpt lat="43.61143" lon="2.90764">
        <ele>1013.3</ele>
        <time>2014-06-22T14:04:14Z</time>
      </trkpt>
      <trkpt lat="43.61147" lon="2.90881">
        <ele>1013.4</ele>
        <time>2014-06-22T14:04:30Z</time>
      </trkpt>
      <trkpt lat="43.61201" lon="2.90971">
        <ele>1013.6</ele>
        <time>2014-06-22T14:04:47Z</time>
      </trkpt>
      <trkpt lat="43.61223" lon="2.91034">
        <ele>1013.8</ele>
        <time>2014-06-22T14:04:57Z</time>
      </trkpt>
      <trkpt lat="43.61287" lon="2.91135">
        <ele>1014.2</ele>
        <time>2014-06-22T14:05:16Z</time>
      </trkpt>
      <trkpt lat="43.61361" lon="2.912">
        <ele>1015.3</ele>
        <time>2014-06-22T14:05:33Z</time>
      </trkpt>
      <trkpt lat="43.61405" lon="2.91305">
        <ele>1022.3</ele>
        <time>2014-06-22T14:06:10Z</time>
      </trkpt>
      <trkpt lat="43.61488" lon="2.91397">
        <ele>1030</ele>
        <time>2014-06-22T14:07:05Z</time>
      </trkpt>
      <trkpt lat="43.61514" lon="2.91442">
        <ele>1033.7</ele>
        <time>2014-06-22T14:07:28Z</time>
      </trkpt>
      <trkpt lat="43.61695" lon="2.91598">
        <ele>1033.7</ele>
        <time>2014-06-22T14:08:23Z</time>
      </trkpt>
      <trkpt lat="43.61811" lon="2.91626">
        <ele>1033.5</ele>
        <time>2014-06-22T14:08:41Z</time>
      </trkpt>
      <trkpt lat="43.61996" lon="2.91608">
        <ele>1034.3</ele>
        <time>2014-06-22T14:09:16Z</time>
      </trkpt>
      <trkpt lat="43.62032" lon="2.91624">
        <ele>1035.8</ele>
        <time>2014-06-22T14:09:26Z</time>
      </trkpt>
      <trkpt lat="43.62352" lon="2.91893">
        <ele>1033.3</ele>
        <time>2014-06-22T14:10:54Z</time>
      </trkpt>
      <trkpt lat="43.62371" lon="2.91934">
        <ele>1032.3</ele>
        <time>2014-06-22T14:10:59Z</time>
      </trkpt>
      <trkpt lat="43.62386" lon="2.92191">
        <ele>1029.8</ele>
        <time>2014-06-22T14:11:28Z</time>
      </trkpt>
      <trkpt lat="43.62399" lon="2.92238">
        <ele>1031.9</ele>
        <time>2014-06-22T14:11:36Z</time>
      </trkpt>
      <trkpt lat="43.62539" lon="2.92351">
        <ele>1040.4</ele>
        <time>2014-06-22T14:12:30Z</time>
      </trkpt>
      <trkpt lat="43.62568" lon="2.92412">
        <ele>1042.7</ele>
        <time>2014-06-22T14:12:52Z</time>
      </trkpt>
      <trkpt lat="43.62601" lon="2.92841">
        <ele>1039.4</ele>
        <time>2014-06-22T14:14:03Z</time>
      </trkpt>
      <trkpt lat="43.62692" lon="2.92932">
        <ele>1035.7</ele>
        <time>2014-06-22T14:23:36Z</time>
      </trkpt>
      <trkpt lat="43.6275" lon="2.93032">
        <ele>1033</ele>
        <time>2014-06-22T14:23:50Z</time>
      </trkpt>
      <trkpt lat="43.62838" lon="2.93">
        <ele>1032.4</ele>
        <time>2014-06-22T14:24:07Z</time>
      </trkpt>
      <trkpt lat="43.62887" lon="2.9293">
        <ele>1036.8</ele>
        <time>2014-06-22T14:24:29Z</time>
      </trkpt>
      <trkpt lat="43.62903" lon="2.92781">
        <ele>1035.4</ele>
        <time>2014-06-22T14:24:56Z</time>
      </trkpt>
      <trkpt lat="43.62928" lon="2.92713">
        <ele>1033.3</ele>
        <time>2014-06-22T14:25:04Z</time>
      </trkpt>
      <trkpt lat="43.63056" lon="2.92591">
        <ele>1023.9</ele>
        <time>2014-06-22T14:25:23Z</time>
      </trkpt>
      <trkpt lat="43.63103" lon="2.92583">
        <ele>1020.3</ele>
        <time>2014-06-22T14:25:29Z</time>
      </trkpt>
      <trkpt lat="43.63146" lon="2.926">
        <ele>1016.4</ele>
        <time>2014-06-22T14:25:35Z</time>
      </trkpt>
      <trkpt lat="43.6329" lon="2.92627">
        <ele>1004.7</ele>
        <time>2014-06-22T14:25:53Z</time>
      </trkpt>
      <trkpt lat="43.63479" lon="2.92793">
        <ele>989</ele>
        <time>2014-06-22T14:26:18Z</time>
      </trkpt>
      <trkpt lat="43.63624" lon="2.92835">
        <ele>991.2</ele>
        <time>2014-06-22T14:26:43Z</time>
      </trkpt>
      <trkpt lat="43.63708" lon="2.92821">
        <ele>991.4</ele>
        <time>2014-06-22T14:26:59Z</time>
      </trkpt>
      <trkpt lat="43.63767" lon="2.92765">
        <ele>992.5</ele>
        <time>2014-06-22T14:27:13Z</time>
      </trkpt>
      <trkpt lat="43.63816" lon="2.92742">
        <ele>998</ele>
        <time>2014-06-22T14:27:38Z</time>
      </trkpt>
      <trkpt lat="43.63875" lon="2.9268">
        <ele>999.2</ele>
        <time>2014-06-22T14:28:04Z</time>
      </trkpt>
      <trkpt lat="43.63945" lon="2.92646">
        <ele>998.6</ele>
        <time>2014-06-22T14:28:21Z</time>
      </trkpt>
      <trkpt lat="43.63984" lon="2.92612">
        <ele>1000.4</ele>
        <time>2014-06-22T14:28:34Z</time>
      </trkpt>
      <trkpt lat="43.64045" lon="2.92506">
        <ele>1001.2</ele>
        <time>2014-06-22T14:28:56Z</time>
      </trkpt>
      <trkpt lat="43.64235" lon="2.92362">
        <ele>1002.8</ele>
        <time>2014-06-22T14:29:39Z</time>
      </trkpt>
      <trkpt lat="43.64329" lon="2.92222">
        <ele>1007.5</ele>
        <time>2014-06-22T14:30:17Z</time>
      </trkpt>
      <trkpt lat="43.64384" lon="2.92123">
        <ele>1008.8</ele>
        <time>2014-06-22T14:30:40Z</time>
      </trkpt>
      <trkpt lat="43.6461" lon="2.92014">
        <ele>1022.3</ele>
        <time>2014-06-22T14:32:23Z</time>
      </trkpt>
      <trkpt lat="43.6472" lon="2.92058">
        <ele>1034.8</ele>
        <time>2014-06-22T14:33:48Z</time>
      </trkpt>
      <trkpt lat="43.64832" lon="2.9205">
        <ele>1044.9</ele>
        <time>2014-06-22T14:35:01Z</time>
      </trkpt>
      <trkpt lat="43.65119" lon="2.92314">
        <ele>1053</ele>
        <time>2014-06-22T14:36:55Z</time>
      </trkpt>
      <trkpt lat="43.65281" lon="2.92451">
        <ele>1061.8</ele>
        <time>2014-06-22T14:38:07Z</time>
      </trkpt>
      <trkpt lat="43.65278" lon="2.92454">
        <ele>1062.8</ele>
        <time>2014-06-22T14:43:43Z</time>
      </trkpt>
      <trkpt lat="43.65345" lon="2.92321">
        <ele>1061.2</ele>
        <time>2014-06-22T14:50:09Z</time>
      </trkpt>
      <trkpt lat="43.65424" lon="2.92312">
        <ele>1057.1</ele>
        <time>2014-06-22T14:50:33Z</time>
      </trkpt>
      <trkpt lat="43.6549" lon="2.92194">
        <ele>1052.5</ele>
        <time>2014-06-22T14:50:56Z</time>
      </trkpt>
      <trkpt lat="43.65529" lon="2.92163">
        <ele>1052</ele>
        <time>2014-06-22T14:51:08Z</time>
      </trkpt>
      <trkpt lat="43.65657" lon="2.92161">
        <ele>1049.7</ele>
        <time>2014-06-22T14:51:33Z</time>
      </trkpt>
      <trkpt lat="43.65827" lon="2.92227">
        <ele>1045.2</ele>
        <time>2014-06-22T14:52:02Z</time>
      </trkpt>
      <trkpt lat="43.65974" lon="2.92186">
        <ele>1043.2</ele>
        <time>2014-06-22T14:52:24Z</time>
      </trkpt>
      <trkpt lat="43.65993" lon="2.91994">
        <ele>1038.6</ele>
        <time>2014-06-22T14:52:49Z</time>
      </trkpt>
      <trkpt lat="43.65982" lon="2.91894">
        <ele>1034.5</ele>
        <time>2014-06-22T14:53:01Z</time>
      </trkpt>
      <trkpt lat="43.66024" lon="2.91926">
        <ele>1029.6</ele>
        <time>2014-06-22T14:53:19Z</time>
      </trkpt>
      <trkpt lat="43.66065" lon="2.92045">
        <ele>1020.1</ele>
        <time>2014-06-22T14:53:40Z</time>
      </trkpt>
      <trkpt lat="43.66102" lon="2.92058">
        <ele>1017.1</ele>
        <time>2014-06-22T14:53:47Z</time>
      </trkpt>
      <trkpt lat="43.66184" lon="2.92122">
        <ele>1010.3</ele>
        <time>2014-06-22T14:54:03Z</time>
      </trkpt>
      <trkpt lat="43.66285" lon="2.92152">
        <ele>1005</ele>
        <time>2014-06-22T14:54:15Z</time>
      </trkpt>
      <trkpt lat="43.66308" lon="2.92179">
        <ele>1003</ele>
        <time>2014-06-22T14:54:20Z</time>
      </trkpt>
      <trkpt lat="43.66367" lon="2.92277">
        <ele>996</ele>
        <time>2014-06-22T14:54:37Z</time>
      </trkpt>
      <trkpt lat="43.66373" lon="2.92373">
        <ele>991.6</ele>
        <time>2014-06-22T14:54:50Z</time>
      </trkpt>
      <trkpt lat="43.66334" lon="2.92418">
        <ele>989</ele>
        <time>2014-06-22T14:54:57Z</time>
      </trkpt>
      <trkpt lat="43.66252" lon="2.92418">
        <ele>984</ele>
        <time>2014-06-22T14:55:09Z</time>
      </trkpt>
      <trkpt lat="43.66347" lon="2.92457">
        <ele>973.6</ele>
        <time>2014-06-22T14:58:29Z</time>
      </trkpt>
      <trkpt lat="43.66254" lon="2.92469">
        <ele>962.6</ele>
        <time>2014-06-22T14:59:00Z</time>
      </trkpt>
      <trkpt lat="43.66375" lon="2.92504">
        <ele>954.8</ele>
        <time>2014-06-22T14:59:23Z</time>
      </trkpt>
      <trkpt lat="43.66539" lon="2.92511">
        <ele>945.6</ele>
        <time>2014-06-22T14:59:42Z</time>
      </trkpt>
      <trkpt lat="43.66568" lon="2.92478">
        <ele>941.8</ele>
        <time>2014-06-22T14:59:49Z</time>
      </trkpt>
      <trkpt lat="43.66543" lon="2.92289">
        <ele>938.3</ele>
        <time>2014-06-22T15:00:12Z</time>
      </trkpt>
      <trkpt lat="43.66629" lon="2.92322">
        <ele>936.9</ele>
        <time>2014-06-22T15:00:32Z</time>
      </trkpt>
      <trkpt lat="43.66707" lon="2.92381">
        <ele>938.4</ele>
        <time>2014-06-22T15:00:54Z</time>
      </trkpt>
      <trkpt lat="43.66783" lon="2.92335">
        <ele>938.1</ele>
        <time>2014-06-22T15:01:10Z</time>
      </trkpt>
      <trkpt lat="43.66865" lon="2.92233">
        <ele>933.7</ele>
        <time>2014-06-22T15:01:25Z</time>
      </trkpt>
      <trkpt lat="43.66927" lon="2.92186">
        <ele>929.5</ele>
        <time>2014-06-22T15:01:34Z</time>
      </trkpt>
      <trkpt lat="43.66962" lon="2.92088">
        <ele>924.5</ele>
        <time>2014-06-22T15:01:44Z</time>
      </trkpt>
      <trkpt lat="43.66992" lon="2.91911">
        <ele>918</ele>
        <time>2014-06-22T15:02:01Z</time>
      </trkpt>
      <trkpt lat="43.67017" lon="2.91874">
        <ele>911.7</ele>
        <time>2014-06-22T15:02:15Z</time>
      </trkpt>
      <trkpt lat="43.67175" lon="2.91979">
        <ele>893.5</ele>
        <time>2014-06-22T15:02:48Z</time>
      </trkpt>
      <trkpt lat="43.67199" lon="2.9205">
        <ele>886.5</ele>
        <time>2014-06-22T15:03:03Z</time>
      </trkpt>
      <trkpt lat="43.6718" lon="2.92144">
        <ele>882.8</ele>
        <time>2014-06-22T15:03:42Z</time>
      </trkpt>
      <trkpt lat="43.67104" lon="2.92243">
        <ele>881.8</ele>
        <time>2014-06-22T15:04:07Z</time>
      </trkpt>
      <trkpt lat="43.67034" lon="2.92308">
        <ele>881.5</ele>
        <time>2014-06-22T15:04:22Z</time>
      </trkpt>
      <trkpt lat="43.6701" lon="2.92374">
        <ele>879.1</ele>
        <time>2014-06-22T15:04:32Z</time>
      </trkpt>
      <trkpt lat="43.66872" lon="2.92464">
        <ele>867.1</ele>
        <time>2014-06-22T15:04:50Z</time>
      </trkpt>
      <trkpt lat="43.66917" lon="2.92522">
        <ele>870</ele>
        <time>2014-06-22T15:05:11Z</time>
      </trkpt>
      <trkpt lat="43.66992" lon="2.92518">
        <ele>878.1</ele>
        <time>2014-06-22T15:05:55Z</time>
      </trkpt>
      <trkpt lat="43.67025" lon="2.92586">
        <ele>881.4</ele>
        <time>2014-06-22T15:06:28Z</time>
      </trkpt>
      <trkpt lat="43.67066" lon="2.92614">
        <ele>882.9</ele>
        <time>2014-06-22T15:06:45Z</time>
      </trkpt>
      <trkpt lat="43.67099" lon="2.92746">
        <ele>875.9</ele>
        <time>2014-06-22T15:07:06Z</time>
      </trkpt>
      <trkpt lat="43.67246" lon="2.92949">
        <ele>882.1</ele>
        <time>2014-06-22T15:08:12Z</time>
      </trkpt>
      <trkpt lat="43.67292" lon="2.93022">
        <ele>886.4</ele>
        <time>2014-06-22T15:08:59Z</time>
      </trkpt>
      <trkpt lat="43.6737" lon="2.93058">
        <ele>877.1</ele>
        <time>2014-06-22T15:17:56Z</time>
      </trkpt>
      <trkpt lat="43.67441" lon="2.93074">
        <ele>869.9</ele>
        <time>2014-06-22T15:18:09Z</time>
      </trkpt>
      <trkpt lat="43.67525" lon="2.93132">
        <ele>862.8</ele>
        <time>2014-06-22T15:18:29Z</time>
      </trkpt>
      <trkpt lat="43.67574" lon="2.93132">
        <ele>856.5</ele>
        <time>2014-06-22T15:18:41Z</time>
      </trkpt>
      <trkpt lat="43.67652" lon="2.93103">
        <ele>853.8</ele>
        <time>2014-06-22T15:18:55Z</time>
      </trkpt>
      <trkpt lat="43.67702" lon="2.93002">
        <ele>853</ele>
        <time>2014-06-22T15:19:13Z</time>
      </trkpt>
      <trkpt lat="43.67747" lon="2.93034">
        <ele>853.4</ele>
        <time>2014-06-22T15:19:26Z</time>
      </trkpt>
      <trkpt lat="43.67828" lon="2.92987">
        <ele>852.7</ele>
        <time>2014-06-22T15:19:50Z</time>
      </trkpt>
      <trkpt lat="43.67886" lon="2.92967">
        <ele>850.1</ele>
        <time>2014-06-22T15:20:06Z</time>
      </trkpt>
      <trkpt lat="43.68121" lon="2.92991">
        <ele>834.6</ele>
        <time>2014-06-22T15:20:45Z</time>
      </trkpt>
      <trkpt lat="43.6819" lon="2.92973">
        <ele>832.3</ele>
        <time>2014-06-22T15:23:07Z</time>
      </trkpt>
      <trkpt lat="43.68239" lon="2.92908">
        <ele>836.3</ele>
        <time>2014-06-22T15:23:38Z</time>
      </trkpt>
      <trkpt lat="43.68265" lon="2.92841">
        <ele>839.5</ele>
        <time>2014-06-22T15:24:04Z</time>
      </trkpt>
      <trkpt lat="43.68331" lon="2.92731">
        <ele>845.2</ele>
        <time>2014-06-22T15:24:55Z</time>
      </trkpt>
      <trkpt lat="43.68489" lon="2.9256">
        <ele>847.8</ele>
        <time>2014-06-22T15:26:32Z</time>
      </trkpt>
      <trkpt lat="43.68511" lon="2.92516">
        <ele>846.6</ele>
        <time>2014-06-22T15:27:21Z</time>
      </trkpt>
      <trkpt lat="43.68647" lon="2.92396">
        <ele>838.1</ele>
        <time>2014-06-22T15:28:02Z</time>
      </trkpt>
      <trkpt lat="43.6867" lon="2.92361">
        <ele>835.6</ele>
        <time>2014-06-22T15:35:51Z</time>
      </trkpt>
    </trkseg>
  </trk>
</gpx>